Time,TemperatureF,DewpointF,PressureIn,WindDirection,WindDirectionDegrees,WindSpeedMPH,WindSpeedGustMPH,Humidity,HourlyPrecipIn,Conditions,Clouds,dailyrainin,SoftwareType,DateUTC
2013-02-20 03:22:00,39.0,37.0,-100.00,West,265,6.0,8.0,93,-99.99,,,-99.99,,2013-02-20 08:22:00,
2013-02-20 03:32:00,39.0,37.0,-100.00,West,265,6.0,8.0,93,-99.99,,,-99.99,,2013-02-20 08:32:00,
2013-02-20 04:32:00,36.0,33.0,-100.00,NNW,345,6.0,13.0,87,-99.99,,,-99.99,,2013-02-20 09:32:00,
2013-02-20 09:52:00,34.0,18.0,-100.00,West,275,10.0,21.0,53,-99.99,,,-99.99,,2013-02-20 14:52:00,
2013-02-20 13:11:00,33.0,14.0,-100.00,WNW,295,10.0,25.0,45,-99.99,,,-99.99,,2013-02-20 18:11:00,
2013-02-20 13:22:00,34.0,14.0,-100.00,West,270,12.0,18.0,43,-99.99,,,-99.99,,2013-02-20 18:22:00,
2013-02-20 13:32:00,34.0,14.0,-100.00,WNW,285,8.0,18.0,43,-99.99,,,-99.99,,2013-02-20 18:32:00,
2013-02-20 13:42:00,35.0,13.0,-100.00,West,275,12.0,18.0,40,-99.99,,,-99.99,,2013-02-20 18:42:00,
2013-02-20 13:52:00,34.0,12.0,-100.00,WNW,285,14.0,23.0,40,-99.99,,,-99.99,,2013-02-20 18:52:00,
2013-02-20 14:01:00,35.0,13.0,-100.00,WNW,290,13.0,22.0,40,-99.99,,,-99.99,,2013-02-20 19:01:00,
2013-02-20 14:12:00,34.0,13.0,-100.00,West,265,10.0,22.0,40,-99.99,,,-99.99,,2013-02-20 19:12:00,
2013-02-20 14:21:00,34.0,12.0,-100.00,West,270,9.0,21.0,40,-99.99,,,-99.99,,2013-02-20 19:21:00,
2013-02-20 14:32:00,34.0,12.0,-100.00,West,280,12.0,24.0,40,-99.99,,,-99.99,,2013-02-20 19:32:00,
2013-02-20 14:41:00,36.0,14.0,-100.00,West,270,6.0,23.0,41,-99.99,,,-99.99,,2013-02-20 19:41:00,
2013-02-20 14:52:00,33.0,12.0,-100.00,West,275,8.0,24.0,40,-99.99,,,-99.99,,2013-02-20 19:52:00,
2013-02-20 15:01:00,33.0,12.0,-100.00,West,280,13.0,18.0,41,-99.99,,,-99.99,,2013-02-20 20:01:00,
2013-02-20 15:11:00,34.0,12.0,-100.00,West,280,10.0,18.0,40,-99.99,,,-99.99,,2013-02-20 20:11:00,
2013-02-20 15:21:00,35.0,12.0,-100.00,West,280,7.0,20.0,38,-99.99,,,-99.99,,2013-02-20 20:21:00,
2013-02-20 15:31:00,35.0,12.0,-100.00,West,265,9.0,23.0,38,-99.99,,,-99.99,,2013-02-20 20:31:00,
2013-02-20 15:41:00,35.0,12.0,-100.00,WNW,295,13.0,22.0,39,-99.99,,,-99.99,,2013-02-20 20:41:00,
2013-02-20 15:51:00,35.0,12.0,-100.00,West,265,12.0,23.0,38,-99.99,,,-99.99,,2013-02-20 20:51:00,
2013-02-20 16:01:00,33.0,11.0,-100.00,West,280,13.0,28.0,39,-99.99,,,-99.99,,2013-02-20 21:01:00,
2013-02-20 16:11:00,33.0,11.0,-100.00,NW,310,8.0,23.0,39,-99.99,,,-99.99,,2013-02-20 21:11:00,
2013-02-20 16:21:00,33.0,11.0,-100.00,WNW,300,7.0,18.0,39,-99.99,,,-99.99,,2013-02-20 21:21:00,
2013-02-20 16:30:00,32.0,10.0,-100.00,NW,320,13.0,23.0,39,-99.99,,,-99.99,,2013-02-20 21:30:00,
2013-02-20 16:32:00,33.0,11.0,-100.00,NNW,335,7.0,20.0,40,-99.99,,,-99.99,,2013-02-20 21:32:00,
2013-02-20 16:42:00,33.0,11.0,-100.00,NNW,335,7.0,20.0,40,-99.99,,,-99.99,,2013-02-20 21:42:00,
2013-02-20 16:52:00,32.0,10.0,-100.00,NNW,335,7.0,17.0,39,-99.99,,,-99.99,,2013-02-20 21:52:00,
2013-02-20 17:00:00,31.0,8.0,-100.00,WNW,290,9.0,25.0,38,-99.99,,,-99.99,,2013-02-20 22:00:00,
2013-02-20 17:02:00,32.0,10.0,-100.00,NNW,335,7.0,17.0,39,-99.99,,,-99.99,,2013-02-20 22:02:00,
2013-02-20 17:11:00,32.0,10.0,-100.00,NW,320,13.0,23.0,39,-99.99,,,-99.99,,2013-02-20 22:11:00,
2013-02-20 17:21:00,32.0,10.0,-100.00,NW,320,13.0,23.0,39,-99.99,,,-99.99,,2013-02-20 22:21:00,
2013-02-20 17:43:00,31.0,8.0,-100.00,WNW,290,9.0,25.0,38,-99.99,,,-99.99,,2013-02-20 22:43:00,
2013-02-20 17:52:00,31.0,8.0,-100.00,WNW,290,9.0,25.0,38,-99.99,,,-99.99,,2013-02-20 22:52:00,
2013-02-20 18:22:00,30.0,9.0,-100.00,WNW,285,15.0,28.0,41,-99.99,,,-99.99,,2013-02-20 23:22:00,
2013-02-20 18:32:00,29.0,9.0,-100.00,WNW,290,10.0,28.0,41,-99.99,,,-99.99,,2013-02-20 23:32:00,
2013-02-20 18:42:00,29.0,9.0,-100.00,West,280,7.0,27.0,43,-99.99,,,-99.99,,2013-02-20 23:42:00,
2013-02-20 18:52:00,29.0,9.0,-100.00,WNW,285,8.0,23.0,42,-99.99,,,-99.99,,2013-02-20 23:52:00,
2013-02-20 19:03:00,29.0,8.0,-100.00,West,280,13.0,21.0,41,-99.99,,,-99.99,,2013-02-21 00:03:00,
2013-02-20 19:11:00,29.0,8.0,-100.00,West,280,13.0,21.0,41,-99.99,,,-99.99,,2013-02-21 00:11:00,
2013-02-20 19:22:00,29.0,8.0,-100.00,NW,320,10.0,23.0,41,-99.99,,,-99.99,,2013-02-21 00:22:00,
2013-02-20 19:42:00,28.0,9.0,-100.00,NW,315,8.0,20.0,43,-99.99,,,-99.99,,2013-02-21 00:42:00,
2013-02-20 19:52:00,28.0,8.0,-100.00,WNW,285,8.0,16.0,43,-99.99,,,-99.99,,2013-02-21 00:52:00,
2013-02-20 20:01:00,28.0,9.0,-100.00,WNW,300,7.0,18.0,44,-99.99,,,-99.99,,2013-02-21 01:01:00,
2013-02-20 20:12:00,28.0,9.0,-100.00,WNW,285,6.0,17.0,44,-99.99,,,-99.99,,2013-02-21 01:12:00,
2013-02-20 20:21:00,28.0,9.0,-100.00,West,260,9.0,15.0,44,-99.99,,,-99.99,,2013-02-21 01:21:00,
2013-02-20 20:32:00,27.0,9.0,-100.00,NW,310,8.0,18.0,45,-99.99,,,-99.99,,2013-02-21 01:32:00,
2013-02-20 20:42:00,27.0,9.0,-100.00,NW,310,7.0,17.0,45,-99.99,,,-99.99,,2013-02-21 01:42:00,
2013-02-20 20:50:00,27.0,10.0,-100.00,WNW,290,7.0,17.0,48,-99.99,,,-99.99,,2013-02-21 01:50:00,
2013-02-20 20:52:00,27.0,9.0,-100.00,NW,310,7.0,17.0,45,-99.99,,,-99.99,,2013-02-21 01:52:00,
2013-02-20 21:02:00,27.0,10.0,-100.00,WNW,295,10.0,24.0,47,-99.99,,,-99.99,,2013-02-21 02:02:00,
2013-02-20 21:11:00,27.0,10.0,-100.00,WNW,290,7.0,15.0,48,-99.99,,,-99.99,,2013-02-21 02:11:00,
2013-02-20 21:22:00,27.0,10.0,-100.00,West,280,3.0,13.0,48,-99.99,,,-99.99,,2013-02-21 02:22:00,
2013-02-20 21:32:00,27.0,10.0,-100.00,WNW,290,7.0,17.0,48,-99.99,,,-99.99,,2013-02-21 02:32:00,
2013-02-20 21:42:00,27.0,10.0,-100.00,WNW,290,7.0,17.0,48,-99.99,,,-99.99,,2013-02-21 02:42:00,
2013-02-20 22:02:00,27.0,11.0,-100.00,WNW,290,6.0,15.0,51,-99.99,,,-99.99,,2013-02-21 03:02:00,
2013-02-20 22:12:00,26.0,11.0,-100.00,WNW,300,7.0,12.0,51,-99.99,,,-99.99,,2013-02-21 03:12:00,
2013-02-20 22:21:00,26.0,11.0,-100.00,West,280,6.0,12.0,52,-99.99,,,-99.99,,2013-02-21 03:21:00,
2013-02-20 22:30:00,26.0,12.0,-100.00,WNW,295,6.0,13.0,54,-99.99,,,-99.99,,2013-02-21 03:30:00,
2013-02-20 22:32:00,26.0,11.0,-100.00,WNW,285,9.0,16.0,51,-99.99,,,-99.99,,2013-02-21 03:32:00,
2013-02-20 22:42:00,26.0,11.0,-100.00,West,270,9.0,20.0,53,-99.99,,,-99.99,,2013-02-21 03:42:00,
2013-02-20 22:51:00,26.0,11.0,-100.00,West,275,9.0,16.0,53,-99.99,,,-99.99,,2013-02-21 03:51:00,
2013-02-20 23:00:00,26.0,12.0,-100.00,West,280,7.0,17.0,55,-99.99,,,-99.99,,2013-02-21 04:00:00,
2013-02-20 23:01:00,26.0,11.0,-100.00,West,275,9.0,16.0,53,-99.99,,,-99.99,,2013-02-21 04:01:00,
2013-02-20 23:11:00,26.0,12.0,-100.00,WNW,295,6.0,13.0,54,-99.99,,,-99.99,,2013-02-21 04:11:00,
2013-02-20 23:22:00,26.0,12.0,-100.00,WNW,295,6.0,13.0,54,-99.99,,,-99.99,,2013-02-21 04:22:00,
2013-02-20 23:42:00,26.0,12.0,-100.00,West,280,7.0,17.0,55,-99.99,,,-99.99,,2013-02-21 04:42:00,
2013-02-20 23:52:00,26.0,12.0,-100.00,West,280,7.0,17.0,55,-99.99,,,-99.99,,2013-02-21 04:52:00,